createdAt,value
2019-03-03T00:01:48.334Z,9.07
2019-03-03T00:04:20.475Z,7.50
2019-03-03T00:06:52.606Z,8.20
2019-03-03T00:09:24.751Z,8.20
2019-03-03T00:11:56.878Z,10.43
2019-03-03T00:14:29.011Z,10.57
2019-03-03T00:17:01.158Z,8.37
2019-03-03T00:19:33.286Z,6.63
2019-03-03T00:22:05.439Z,6.03
2019-03-03T00:24:37.562Z,6.83
2019-03-03T00:27:09.688Z,9.43
2019-03-03T00:29:41.833Z,11.13
2019-03-03T00:32:13.957Z,7.93
2019-03-03T00:34:46.078Z,8.73
2019-03-03T00:37:18.496Z,7.77
2019-03-03T00:39:50.627Z,10.00
2019-03-03T00:42:22.772Z,5.70
2019-03-03T00:44:54.906Z,6.93
2019-03-03T00:47:27.039Z,8.00
2019-03-03T00:49:59.183Z,6.57
2019-03-03T00:52:31.309Z,9.53
2019-03-03T00:55:04.444Z,6.13
2019-03-03T00:57:36.564Z,6.70
2019-03-03T01:00:08.703Z,7.00
2019-03-03T01:02:40.844Z,5.77
2019-03-03T01:05:12.974Z,8.97
2019-03-03T01:07:45.109Z,6.33
2019-03-03T01:10:17.282Z,9.23
2019-03-03T01:12:49.387Z,8.10
2019-03-03T01:15:21.512Z,8.13
2019-03-03T01:17:54.638Z,7.43
2019-03-03T01:20:26.756Z,7.73
2019-03-03T01:22:58.879Z,7.73
2019-03-03T01:25:31.029Z,8.10
2019-03-03T01:28:03.466Z,5.03
2019-03-03T01:30:35.588Z,8.30
2019-03-03T01:33:07.734Z,5.97
2019-03-03T01:35:39.869Z,8.97
2019-03-03T01:38:11.993Z,8.07
2019-03-03T01:40:44.128Z,7.33
2019-03-03T01:43:16.260Z,5.43
2019-03-03T01:45:48.382Z,4.63
2019-03-03T01:48:20.534Z,12.40
2019-03-03T01:50:52.668Z,7.83
2019-03-03T01:53:25.769Z,5.73
2019-03-03T01:55:57.903Z,5.93
2019-03-03T01:58:30.027Z,6.70
2019-03-03T02:01:02.174Z,5.70
2019-03-03T02:03:34.306Z,7.17
2019-03-03T02:06:06.431Z,10.97
2019-03-03T02:08:38.584Z,5.93
2019-03-03T02:11:10.706Z,7.67
2019-03-03T02:13:42.828Z,5.17
2019-03-03T02:16:14.981Z,7.90
2019-03-03T02:18:47.110Z,9.17
2019-03-03T02:21:19.238Z,8.37
2019-03-03T02:23:51.378Z,6.63
2019-03-03T02:26:23.514Z,6.27
2019-03-03T02:28:55.633Z,5.50
2019-03-03T02:31:27.777Z,7.70
2019-03-03T02:33:59.905Z,8.30
2019-03-03T02:36:32.026Z,4.93
2019-03-03T02:39:04.191Z,8.50
2019-03-03T02:41:37.924Z,10.13
2019-03-03T02:44:10.071Z,9.83
2019-03-03T02:46:42.206Z,10.87
2019-03-03T02:49:14.368Z,9.33
2019-03-03T02:51:46.519Z,8.67
2019-03-03T02:54:19.716Z,6.47
2019-03-03T02:56:51.861Z,6.73
2019-03-03T02:59:23.988Z,6.20
2019-03-03T03:01:56.111Z,9.33
2019-03-03T03:04:28.253Z,8.23
2019-03-03T03:07:00.384Z,6.33
2019-03-03T03:09:32.502Z,6.47
2019-03-03T03:12:04.655Z,7.33
2019-03-03T03:14:36.787Z,7.97
2019-03-03T03:17:08.938Z,7.87
2019-03-03T03:19:41.363Z,7.83
2019-03-03T03:22:13.491Z,6.57
2019-03-03T03:24:45.646Z,8.07
2019-03-03T03:27:17.778Z,6.90
2019-03-03T03:29:49.902Z,7.83
2019-03-03T03:32:22.116Z,8.00
2019-03-03T03:34:54.253Z,8.70
2019-03-03T03:37:26.374Z,9.13
2019-03-03T03:39:58.501Z,8.23
2019-03-03T03:42:30.644Z,7.80
2019-03-03T03:45:02.779Z,8.00
2019-03-03T03:47:36.217Z,9.03
2019-03-03T03:50:08.339Z,9.70
2019-03-03T03:52:40.472Z,5.83
2019-03-03T03:55:12.639Z,9.70
2019-03-03T03:57:44.774Z,9.40
2019-03-03T04:00:16.897Z,6.67
2019-03-03T04:02:51.512Z,5.33
2019-03-03T04:05:23.643Z,7.90
2019-03-03T04:07:55.777Z,9.57
2019-03-03T04:10:27.912Z,9.47
2019-03-03T04:13:00.053Z,7.57
2019-03-03T04:15:32.178Z,11.33
2019-03-03T04:18:04.328Z,8.80
2019-03-03T04:20:36.443Z,10.80
2019-03-03T04:23:08.581Z,10.40
2019-03-03T04:25:40.733Z,9.23
2019-03-03T04:28:12.863Z,10.30
2019-03-03T04:30:44.988Z,8.77
2019-03-03T04:33:17.150Z,7.50
2019-03-03T04:35:49.277Z,7.97
2019-03-03T04:38:21.405Z,5.97
2019-03-03T04:40:53.551Z,6.77
2019-03-03T04:43:25.673Z,9.50
2019-03-03T04:45:58.768Z,11.07
2019-03-03T04:48:31.895Z,7.77
2019-03-03T04:51:04.024Z,7.17
2019-03-03T04:53:36.152Z,8.23
2019-03-03T04:56:08.315Z,11.33
2019-03-03T04:58:40.429Z,7.43
2019-03-03T05:01:12.565Z,7.37
2019-03-03T05:03:44.699Z,8.27
2019-03-03T05:06:16.829Z,9.13
2019-03-03T05:08:50.057Z,8.17
2019-03-03T05:11:22.171Z,7.70
2019-03-03T05:13:54.305Z,6.97
2019-03-03T05:16:26.461Z,7.93
2019-03-03T05:18:58.590Z,8.67
2019-03-03T05:21:30.713Z,9.83
2019-03-03T05:24:02.882Z,9.53
2019-03-03T05:26:35.008Z,8.67
2019-03-03T05:29:07.142Z,8.93
2019-03-03T05:31:39.290Z,7.70
2019-03-03T05:34:11.420Z,7.63
2019-03-03T05:36:43.551Z,7.27
2019-03-03T05:39:15.688Z,8.40
2019-03-03T05:41:47.821Z,8.07
2019-03-03T05:44:19.970Z,7.70
2019-03-03T05:46:52.094Z,7.43
2019-03-03T05:49:24.226Z,9.27
2019-03-03T05:51:56.374Z,7.60
2019-03-03T05:54:28.501Z,6.67
2019-03-03T05:57:00.634Z,6.80
2019-03-03T05:59:32.779Z,9.80
2019-03-03T06:02:05.873Z,9.37
2019-03-03T06:04:38.000Z,6.73
2019-03-03T06:07:10.140Z,6.93
2019-03-03T06:09:42.284Z,7.27
2019-03-03T06:12:14.412Z,8.80
2019-03-03T06:14:46.565Z,8.53
2019-03-03T06:17:18.694Z,7.57
2019-03-03T06:19:50.820Z,9.43
2019-03-03T06:22:22.956Z,7.27
2019-03-03T06:24:55.090Z,5.97
2019-03-03T06:27:27.230Z,8.03
2019-03-03T06:29:59.363Z,7.93
2019-03-03T06:32:31.502Z,9.37
2019-03-03T06:35:03.631Z,5.87
2019-03-03T06:37:35.779Z,6.77
2019-03-03T06:40:07.905Z,6.53
2019-03-03T06:42:40.033Z,6.47
2019-03-03T06:45:12.180Z,7.50
2019-03-03T06:47:44.305Z,8.97
2019-03-03T06:50:16.448Z,7.90
2019-03-03T06:52:48.604Z,9.83
2019-03-03T06:55:20.732Z,6.83
2019-03-03T06:57:52.862Z,6.07
2019-03-03T07:00:25.022Z,9.33
2019-03-03T07:02:57.137Z,10.20
2019-03-03T07:05:29.268Z,9.70
2019-03-03T07:08:01.431Z,19.10
2019-03-03T07:10:33.551Z,10.33
2019-03-03T07:13:05.680Z,15.40
2019-03-03T07:15:37.826Z,10.83
2019-03-03T07:18:10.341Z,5.83
2019-03-03T07:20:42.554Z,9.00
2019-03-03T07:23:15.037Z,14.67
2019-03-03T07:25:47.172Z,9.70
2019-03-03T07:28:19.301Z,10.50
2019-03-03T07:30:51.457Z,9.73
2019-03-03T07:33:23.581Z,9.03
2019-03-03T07:35:55.718Z,10.90
2019-03-03T07:38:27.858Z,7.10
2019-03-03T07:40:59.996Z,10.23
2019-03-03T07:43:35.329Z,9.87
2019-03-03T07:46:11.790Z,6.57
2019-03-03T07:48:43.890Z,4.93
2019-03-03T07:51:16.029Z,7.27
2019-03-03T07:53:48.162Z,5.47
2019-03-03T07:56:20.286Z,8.07
2019-03-03T07:58:52.432Z,6.03
2019-03-03T08:01:24.551Z,9.63
2019-03-03T08:03:56.676Z,8.43
2019-03-03T08:06:28.819Z,7.53
2019-03-03T08:09:00.944Z,6.13
2019-03-03T08:11:34.719Z,6.30
2019-03-03T08:14:06.841Z,8.13
2019-03-03T08:16:38.966Z,8.40
2019-03-03T08:19:11.106Z,6.13
2019-03-03T08:21:43.234Z,9.90
2019-03-03T08:24:15.361Z,4.67
2019-03-03T08:26:47.504Z,6.53
2019-03-03T08:29:19.626Z,6.63
2019-03-03T08:31:51.894Z,6.33
2019-03-03T08:34:24.042Z,8.63
2019-03-03T08:36:56.176Z,7.57
2019-03-03T08:39:28.302Z,6.37
2019-03-03T08:42:00.445Z,6.63
2019-03-03T08:44:32.570Z,7.00
2019-03-03T08:47:04.693Z,6.13
2019-03-03T12:59:23.232Z,8.87
2019-03-03T13:01:55.356Z,8.00
2019-03-03T13:04:27.484Z,10.20
2019-03-03T13:06:59.633Z,7.43
2019-03-03T13:09:31.794Z,11.53
2019-03-03T13:12:03.925Z,7.90
2019-03-03T13:14:36.068Z,18.97
2019-03-03T13:49:19.193Z,19.25
2019-03-03T13:51:52.393Z,14.17
2019-03-03T13:54:24.522Z,15.50
2019-03-03T13:56:56.652Z,11.07
2019-03-03T13:59:28.779Z,14.30
2019-03-03T14:02:00.932Z,10.20
2019-03-03T14:04:33.073Z,11.77
2019-03-03T14:07:05.201Z,7.23
2019-03-03T14:09:37.331Z,8.73
2019-03-03T14:12:09.465Z,9.60
2019-03-03T14:14:41.596Z,10.87
2019-03-03T14:17:13.733Z,11.07
2019-03-03T14:19:45.865Z,14.53
2019-03-03T14:22:18.002Z,14.23
2019-03-03T14:24:50.126Z,14.73
2019-03-03T14:27:22.261Z,8.43
2019-03-03T14:29:54.395Z,15.07
2019-03-03T14:32:26.518Z,12.27
2019-03-03T14:34:58.662Z,14.37
2019-03-03T14:37:30.806Z,11.17
2019-03-03T14:40:02.938Z,10.93
2019-03-03T14:42:35.449Z,23.37
2019-03-03T14:45:07.578Z,15.93
2019-03-03T14:47:39.716Z,12.60
2019-03-03T14:50:11.844Z,16.90
2019-03-03T14:52:43.967Z,14.93
2019-03-03T14:55:16.099Z,13.83
2019-03-03T14:57:48.241Z,19.47
2019-03-03T15:00:20.401Z,14.20
2019-03-03T15:02:52.526Z,10.13
2019-03-03T15:05:24.679Z,18.57
2019-03-03T15:07:56.827Z,12.63
2019-03-03T15:10:28.955Z,16.90
2019-03-03T15:13:01.089Z,10.60
2019-03-03T15:15:34.288Z,20.43
2019-03-03T15:18:06.427Z,21.13
2019-03-03T15:20:38.557Z,28.33
2019-03-03T15:23:10.705Z,16.73
2019-03-03T15:25:42.838Z,26.53
2019-03-03T15:28:15.937Z,18.37
2019-03-03T15:30:48.072Z,25.83
2019-03-03T15:33:20.203Z,16.17
2019-03-03T15:35:52.336Z,23.87
2019-03-03T15:38:24.471Z,13.47
2019-03-03T15:40:56.602Z,28.93
2019-03-03T15:43:28.736Z,27.27
2019-03-03T15:46:00.874Z,28.40
2019-03-03T15:48:33.012Z,29.87
2019-03-03T15:51:05.132Z,17.97
2019-03-03T15:53:37.271Z,20.87
2019-03-03T15:56:09.404Z,20.90
2019-03-03T15:58:41.531Z,23.43
2019-03-03T16:01:13.651Z,13.63
2019-03-03T16:03:45.791Z,23.93
2019-03-03T16:06:18.269Z,27.83
2019-03-03T16:08:50.400Z,23.73
2019-03-03T16:11:22.532Z,16.93
2019-03-03T16:13:54.661Z,21.23
2019-03-03T16:16:26.790Z,18.53
2019-03-03T16:18:58.918Z,23.13
2019-03-03T16:21:31.049Z,19.20
2019-03-03T16:24:03.207Z,16.60
2019-03-03T16:26:35.338Z,23.53
2019-03-03T16:29:08.441Z,13.73
2019-03-03T16:31:40.574Z,14.87
2019-03-03T16:34:12.698Z,17.50
2019-03-03T16:36:44.818Z,16.97
2019-03-03T16:39:16.954Z,24.00
2019-03-03T16:41:49.080Z,17.13
2019-03-03T16:44:21.216Z,22.80
2019-03-03T16:46:53.342Z,21.67
2019-03-03T16:49:25.466Z,27.50
2019-03-03T16:51:57.601Z,20.70
2019-03-03T16:54:29.735Z,28.27
2019-03-03T16:57:01.864Z,20.43
2019-03-03T16:59:34.960Z,20.47
2019-03-03T17:02:07.085Z,23.30
2019-03-03T17:04:39.208Z,22.20
2019-03-03T17:07:11.350Z,21.93
2019-03-03T17:09:43.488Z,29.63
2019-03-03T17:12:15.614Z,21.70
2019-03-03T17:14:47.752Z,23.17
2019-03-03T17:17:20.952Z,23.33
2019-03-03T17:19:53.087Z,18.80
2019-03-03T17:22:25.216Z,19.97
2019-03-03T17:24:57.359Z,24.20
2019-03-03T17:27:29.488Z,20.63
2019-03-03T17:30:01.619Z,19.77
2019-03-03T17:32:35.174Z,23.90
2019-03-03T17:35:07.274Z,22.03
2019-03-03T17:37:40.373Z,22.30
2019-03-03T17:40:12.513Z,24.47
2019-03-03T17:42:44.642Z,24.90
2019-03-03T17:45:16.772Z,16.20
2019-03-03T17:47:48.909Z,18.67
2019-03-03T17:50:21.035Z,24.60
2019-03-03T17:52:53.162Z,22.47
2019-03-03T17:55:25.304Z,24.63
2019-03-03T17:57:57.435Z,16.30
2019-03-03T18:00:29.571Z,20.17
2019-03-03T18:03:01.696Z,15.37
2019-03-03T18:05:33.828Z,15.93
2019-03-03T18:08:05.956Z,19.40
2019-03-03T18:10:38.086Z,18.03
2019-03-03T18:13:10.215Z,20.37
2019-03-03T18:15:42.343Z,17.53
2019-03-03T18:18:14.481Z,16.87
2019-03-03T18:20:46.622Z,20.37
2019-03-03T18:23:18.750Z,20.33
2019-03-03T18:25:50.895Z,14.83
2019-03-03T18:28:24.000Z,15.70
2019-03-03T18:30:56.119Z,11.63
2019-03-03T18:33:28.247Z,19.03
2019-03-03T18:36:00.377Z,12.93
2019-03-03T18:38:33.591Z,16.60
2019-03-03T18:41:05.725Z,14.17
2019-03-03T18:43:37.861Z,14.10
2019-03-03T18:46:09.989Z,15.57
2019-03-03T18:48:42.123Z,13.93
2019-03-03T18:51:14.245Z,17.23
2019-03-03T18:53:46.369Z,12.90
2019-03-03T18:56:18.495Z,15.33
2019-03-03T18:58:50.637Z,17.97
2019-03-03T19:01:22.778Z,12.40
2019-03-03T19:03:54.897Z,10.13
2019-03-03T19:06:27.023Z,17.13
2019-03-03T19:08:59.148Z,10.20
2019-03-03T19:11:31.276Z,8.50
2019-03-03T19:14:03.414Z,15.27
2019-03-03T19:16:35.540Z,6.30
2019-03-03T19:19:07.680Z,15.57
2019-03-03T19:21:39.811Z,9.43
2019-03-03T19:24:11.942Z,9.40
2019-03-03T19:26:44.080Z,9.37
2019-03-03T19:29:16.211Z,8.87
2019-03-03T19:31:48.325Z,9.60
2019-03-03T19:34:20.461Z,10.17
2019-03-03T19:36:52.581Z,8.97
2019-03-03T19:39:24.705Z,6.87
2019-03-03T19:41:56.832Z,7.27
2019-03-03T19:44:29.928Z,14.10
2019-03-03T19:47:02.057Z,10.57
2019-03-03T19:49:34.181Z,8.80
2019-03-03T19:52:06.307Z,9.07
2019-03-03T19:54:38.435Z,11.00
2019-03-03T19:57:10.558Z,9.63
2019-03-03T19:59:42.696Z,6.20
2019-03-03T20:02:14.815Z,7.93
2019-03-03T20:04:46.960Z,7.77
2019-03-03T20:07:19.082Z,8.30
2019-03-03T20:09:51.217Z,6.10
2019-03-03T20:12:23.349Z,8.10
2019-03-03T20:14:55.477Z,6.57
2019-03-03T20:17:27.601Z,7.57
2019-03-03T20:19:59.746Z,3.80
2019-03-03T20:22:31.855Z,7.87
2019-03-03T20:25:03.978Z,6.73
2019-03-03T20:27:37.733Z,8.67
2019-03-03T20:30:09.860Z,3.93
2019-03-03T20:32:42.053Z,8.83
2019-03-03T20:35:14.193Z,7.23
2019-03-03T20:37:46.313Z,5.00
2019-03-03T20:40:18.444Z,3.73
2019-03-03T20:42:50.586Z,8.03
2019-03-03T20:45:22.707Z,10.53
2019-03-03T20:47:54.839Z,11.57
2019-03-03T20:50:28.038Z,5.20
2019-03-03T20:53:00.168Z,6.17
2019-03-03T20:55:32.293Z,10.53
2019-03-03T20:58:06.256Z,7.23
2019-03-03T21:00:38.378Z,4.17
2019-03-03T21:03:10.500Z,6.70
2019-03-03T21:05:42.622Z,4.60
2019-03-03T21:08:14.749Z,6.33
2019-03-03T21:10:46.880Z,5.93
2019-03-03T21:13:19.007Z,6.33
2019-03-03T21:15:51.149Z,7.67
2019-03-03T21:18:23.265Z,7.83
2019-03-03T21:20:55.393Z,7.77
2019-03-03T21:23:28.541Z,5.03
2019-03-03T21:26:00.620Z,6.37
2019-03-03T21:28:32.751Z,5.93
2019-03-03T21:31:04.873Z,7.53
2019-03-03T21:33:37.002Z,3.53
2019-03-03T21:36:09.127Z,7.70
2019-03-03T21:38:41.254Z,8.77
2019-03-03T21:41:13.387Z,7.87
2019-03-03T21:43:45.513Z,8.70
2019-03-03T21:46:17.681Z,5.23
2019-03-03T21:48:49.818Z,3.83
2019-03-03T21:51:21.944Z,4.10
2019-03-03T21:53:54.082Z,4.77
2019-03-03T21:56:26.212Z,8.13
2019-03-03T21:58:59.312Z,7.43
2019-03-03T22:01:31.437Z,6.10
2019-03-03T22:04:03.556Z,3.80
2019-03-03T22:06:35.760Z,3.07
2019-03-03T22:09:07.886Z,5.83
2019-03-03T22:11:41.631Z,4.27
2019-03-03T22:14:13.756Z,4.20
2019-03-03T22:16:45.879Z,6.33
2019-03-03T22:19:18.006Z,6.37
2019-03-03T22:21:50.133Z,3.53
2019-03-03T22:24:22.259Z,5.20
2019-03-03T22:26:54.384Z,9.63
2019-03-03T22:29:26.504Z,2.50
2019-03-03T22:31:58.625Z,5.10
2019-03-03T22:34:31.138Z,5.03
2019-03-03T22:37:03.272Z,6.00
2019-03-03T22:39:35.399Z,6.20
2019-03-03T22:42:07.521Z,4.50
2019-03-03T22:44:39.667Z,5.70
2019-03-03T22:47:11.792Z,6.13
2019-03-03T22:49:43.927Z,4.83
2019-03-03T22:52:16.066Z,7.87
2019-03-03T22:54:48.194Z,6.00
2019-03-03T22:57:20.321Z,3.40
2019-03-03T22:59:52.445Z,3.80
2019-03-03T23:02:24.570Z,5.37
2019-03-03T23:04:56.695Z,3.03
2019-03-03T23:07:28.820Z,3.20
2019-03-03T23:10:00.958Z,3.43
2019-03-03T23:12:33.083Z,7.30
2019-03-03T23:15:05.207Z,7.83
2019-03-03T23:17:37.331Z,6.13
2019-03-03T23:20:09.465Z,9.37
2019-03-03T23:22:41.602Z,5.57
2019-03-03T23:25:13.734Z,6.63
2019-03-03T23:27:47.033Z,3.23
2019-03-03T23:30:19.150Z,4.53
2019-03-03T23:32:51.282Z,5.77
2019-03-03T23:35:23.407Z,4.33
2019-03-03T23:37:55.533Z,3.80
2019-03-03T23:40:27.670Z,8.50
2019-03-03T23:42:59.787Z,3.70
2019-03-03T23:45:31.907Z,5.63
2019-03-03T23:48:04.042Z,3.93
2019-03-03T23:50:36.172Z,4.30
2019-03-03T23:53:08.307Z,4.87
2019-03-03T23:55:40.429Z,3.57
2019-03-03T23:58:12.556Z,4.37
